Time;durP1;ratioP1;P1;durP2;ratioP2;P2;SDS_P1;SDS_P2;PMS_P1;PMS_P2;Temp;Humidity;BMP_temperature;BMP_pressure;BME280_temperature;BME280_humidity;BME280_pressure;Samples;Min_cycle;Max_cycle;Signal;HPM_P1;HPM_P2
2021/04/30 12:55:54;;;;;;;14.05;6.20;;;;;;;24.84;31.69;100055.11;1852939;76;22889;-77
2021/04/30 12:58:22;;;;;;;17.90;7.17;;;;;;;24.82;31.81;100054.56;1802516;79;21177;-77
2021/04/30 13:01:02;;;;;;;18.67;5.22;;;;;;;24.85;32.00;100052.13;1792617;78;21208;-76
2021/04/30 13:03:40;;;;;;;8.60;3.80;;;;;;;24.88;31.96;100049.39;1820510;76;21501;-77
2021/04/30 13:06:10;;;;;;;16.05;4.33;;;;;;;24.88;31.98;100040.63;1795362;78;21168;-75
2021/04/30 13:08:40;;;;;;;22.25;5.90;;;;;;;24.90;31.92;100027.52;1828492;78;20973;-78
2021/04/30 13:11:15;;;;;;;23.62;6.67;;;;;;;24.90;31.97;100026.69;1825218;78;21095;-77
2021/04/30 13:14:00;;;;;;;22.67;6.83;;;;;;;24.88;32.26;100026.11;1802057;78;21203;-75
2021/04/30 13:16:46;;;;;;;11.95;4.40;;;;;;;24.90;32.33;100008.33;1802597;76;21198;-80
2021/04/30 13:19:24;;;;;;;16.40;6.60;;;;;;;24.90;32.07;100016.55;1798165;78;21304;-76
2021/04/30 13:21:54;;;;;;;7.85;4.67;;;;;;;24.90;32.00;100006.14;1807681;76;21195;-77
2021/04/30 13:24:27;;;;;;;8.60;4.10;;;;;;;24.90;32.13;100000.11;1803510;76;21212;-78
2021/04/30 13:27:05;;;;;;;9.80;3.98;;;;;;;24.93;32.16;100008.33;1804310;76;21217;-78
2021/04/30 13:29:40;;;;;;;18.55;5.45;;;;;;;24.95;32.09;100001.52;1807700;76;21229;-76
2021/04/30 13:32:12;;;;;;;12.37;5.28;;;;;;;25.00;32.16;100013.05;1782761;76;21187;-77
2021/04/30 13:35:00;;;;;;;16.95;6.40;;;;;;;25.03;32.30;99997.46;1826311;78;21088;-78
2021/04/30 13:37:42;;;;;;;30.32;10.00;;;;;;;25.02;32.45;99999.89;1827280;78;21067;-77
2021/04/30 13:40:13;;;;;;;33.08;10.70;;;;;;;25.03;32.66;100003.77;1806504;76;21120;-77
2021/04/30 13:42:43;;;;;;;27.75;10.08;;;;;;;25.04;32.68;99992.25;1781198;76;21488;-76
2021/04/30 13:45:15;;;;;;;21.00;7.95;;;;;;;25.04;32.68;99989.52;1824336;76;21635;-78
2021/04/30 13:47:50;;;;;;;15.72;4.83;;;;;;;25.05;32.77;99987.05;1794089;78;21583;-76
2021/04/30 13:50:34;;;;;;;20.00;4.35;;;;;;;25.05;32.89;99985.67;1827101;78;21092;-76
2021/04/30 13:53:05;;;;;;;35.10;9.83;;;;;;;25.03;32.87;99991.44;1814667;76;22020;-76
2021/04/30 13:55:33;;;;;;;23.65;8.35;;;;;;;25.02;33.02;99983.45;1817282;78;21021;-77
2021/04/30 13:58:03;;;;;;;61.08;17.45;;;;;;;24.99;33.12;99986.20;1797009;79;21663;-78
2021/04/30 14:00:33;;;;;;;43.20;13.30;;;;;;;25.00;33.13;99982.91;1801568;77;21391;-78
2021/04/30 14:03:00;;;;;;;21.95;6.85;;;;;;;25.02;33.17;99975.23;1834280;77;21121;-79
2021/04/30 14:05:27;;;;;;;19.52;6.50;;;;;;;25.04;33.37;99973.89;1799292;78;21146;-78
2021/04/30 14:07:55;;;;;;;13.05;4.00;;;;;;;25.06;33.13;99962.66;1793299;79;21451;-78
2021/04/30 14:10:23;;;;;;;14.83;4.80;;;;;;;25.03;32.98;99968.14;1790404;77;21143;-78
2021/04/30 14:12:51;;;;;;;20.88;5.92;;;;;;;25.00;33.06;99964.55;1798907;79;21692;-77
2021/04/30 14:15:18;;;;;;;32.63;9.80;;;;;;;25.00;33.32;99963.18;1802710;79;21143;-78
2021/04/30 14:17:52;;;;;;;19.40;8.75;;;;;;;25.01;33.23;99948.93;1803167;77;21124;-78
2021/04/30 14:20:20;;;;;;;27.62;9.63;;;;;;;25.00;33.19;99963.73;1792142;77;21589;-76
2021/04/30 14:22:47;;;;;;;10.55;4.37;;;;;;;24.99;33.30;99953.87;1779549;79;21339;-76
2021/04/30 14:25:15;;;;;;;13.45;4.37;;;;;;;24.97;33.20;99956.84;1791454;79;21606;-81
2021/04/30 14:27:42;;;;;;;9.43;4.35;;;;;;;24.96;33.28;99952.47;1751573;80;21109;-84
2021/04/30 14:30:11;;;;;;;7.37;3.95;;;;;;;24.94;33.39;99946.44;1785018;79;21677;-77
2021/04/30 14:32:38;;;;;;;16.90;4.70;;;;;;;24.93;33.40;99942.58;1781157;79;21151;-79
2021/04/30 14:35:07;;;;;;;9.30;3.80;;;;;;;24.93;33.27;99947.51;1755897;79;21128;-76
2021/04/30 14:37:34;;;;;;;5.97;2.92;;;;;;;24.94;33.14;99938.77;1789239;79;21548;-78
2021/04/30 14:40:04;;;;;;;16.12;5.70;;;;;;;24.94;33.23;99945.63;1781009;80;21127;-77
2021/04/30 14:42:33;;;;;;;16.05;4.83;;;;;;;24.95;33.07;99936.30;1812399;79;21142;-77
2021/04/30 14:45:00;;;;;;;14.15;3.83;;;;;;;24.94;33.07;99941.52;1793243;79;21651;-79
2021/04/30 14:47:29;;;;;;;24.45;7.45;;;;;;;24.92;33.20;99939.56;1813893;79;21146;-78
2021/04/30 14:49:59;;;;;;;37.33;10.25;;;;;;;24.93;33.28;99935.18;1793896;79;21129;-77
2021/04/30 14:52:26;;;;;;;26.80;8.90;;;;;;;24.92;33.38;99929.98;1806598;77;21104;-81
2021/04/30 14:54:55;;;;;;;19.48;7.22;;;;;;;24.96;33.19;99918.77;1781646;80;21152;-79
2021/04/30 14:57:25;;;;;;;28.60;8.70;;;;;;;24.96;33.15;99916.03;1785435;77;21022;-75
2021/04/30 14:59:54;;;;;;;39.03;10.95;;;;;;;24.96;33.32;99924.25;1781527;80;21145;-77
2021/04/30 15:02:22;;;;;;;28.52;5.97;;;;;;;24.95;33.29;99927.53;1781835;79;21197;-77
2021/04/30 15:04:49;;;;;;;6.62;3.15;;;;;;;24.96;33.36;99926.44;1784808;78;21176;-78
2021/04/30 15:07:18;;;;;;;9.43;2.98;;;;;;;24.96;33.11;99919.59;1789530;77;21179;-81
2021/04/30 15:09:47;;;;;;;35.73;8.45;;;;;;;24.96;33.06;99921.51;1800248;77;21721;-80
2021/04/30 15:12:14;;;;;;;33.53;10.53;;;;;;;24.94;33.19;99912.75;1791412;78;21180;-77
2021/04/30 15:14:42;;;;;;;33.35;9.28;;;;;;;24.94;33.13;99910.83;1787516;78;21479;-78
2021/04/30 15:17:11;;;;;;;61.05;14.50;;;;;;;24.92;33.07;99912.98;1819824;78;21166;-78
2021/04/30 15:19:41;;;;;;;31.95;10.35;;;;;;;24.91;33.14;99907.78;1784498;77;21206;-76
2021/04/30 15:22:08;;;;;;;13.30;5.70;;;;;;;24.88;33.16;99915.16;1811978;77;21200;-79
2021/04/30 15:24:37;;;;;;;18.25;3.85;;;;;;;24.86;33.22;99919.55;1782596;77;21199;-76
2021/04/30 15:27:05;;;;;;;7.97;3.70;;;;;;;24.84;33.40;99907.19;1785761;77;21163;-78
2021/04/30 15:29:33;;;;;;;12.60;4.50;;;;;;;24.82;33.49;99903.36;1796454;79;21196;-78
2021/04/30 15:32:01;;;;;;;;;;;;;;;24.82;33.60;99914.86;1801204;77;21226;-77
2021/04/30 15:34:28;;;;;;;;;;;;;;;24.79;33.62;99907.44;1801608;77;20319;-75
2021/04/30 15:36:56;;;;;;;21.93;6.13;;;;;;;24.78;33.60;99905.80;1800220;77;20345;-76
2021/04/30 15:39:23;;;;;;;;;;;;;;;24.75;33.74;99906.34;1796841;78;21209;-76
2021/04/30 15:41:50;;;;;;;16.70;5.28;;;;;;;24.73;33.91;99908.51;1810533;78;20570;-76
2021/04/30 15:44:18;;;;;;;9.80;4.50;;;;;;;24.73;34.13;99901.66;1808120;77;21209;-75
2021/04/30 15:46:46;;;;;;;14.80;5.05;;;;;;;24.74;33.96;99899.20;1781277;77;21563;-77
2021/04/30 15:49:14;;;;;;;36.05;9.48;;;;;;;24.73;34.04;99902.20;1779628;80;21180;-77
2021/04/30 15:51:40;;;;;;;;;;;;;;;24.73;34.02;99896.19;1782695;80;21220;-76
2021/04/30 15:54:09;;;;;;;38.92;10.60;;;;;;;24.69;33.85;99900.53;1779986;80;20294;-77
2021/04/30 15:56:36;;;;;;;43.60;14.18;;;;;;;24.67;33.88;99890.41;1780094;80;21190;-80
2021/04/30 15:59:03;;;;;;;54.00;15.90;;;;;;;24.67;33.93;99887.67;1780380;80;21219;-76
2021/04/30 16:01:34;;;;;;;49.35;13.30;;;;;;;24.64;33.93;99880.52;1795026;79;21685;-80
2021/04/30 16:04:02;;;;;;;23.10;7.37;;;;;;;24.62;34.05;99883.53;1787860;79;21541;-79
2021/04/30 16:06:32;;;;;;;22.48;6.47;;;;;;;24.59;34.09;99885.42;1784997;79;21212;-79
2021/04/30 16:09:00;;;;;;;8.75;5.17;;;;;;;24.57;34.22;99889.50;1785447;79;21231;-80
2021/04/30 16:11:30;;;;;;;12.03;5.10;;;;;;;24.53;34.23;99883.20;1806875;79;21160;-76
2021/04/30 16:13:58;;;;;;;9.18;4.78;;;;;;;24.51;34.24;99884.55;1806006;79;21177;-79
2021/04/30 16:16:26;;;;;;;10.28;4.97;;;;;;;24.48;34.55;99886.43;1807127;79;21204;-76
2021/04/30 16:18:54;;;;;;;11.65;5.72;;;;;;;24.47;34.44;99888.89;1813007;79;21200;-76
2021/04/30 16:21:22;;;;;;;8.55;4.67;;;;;;;24.44;34.73;99887.52;1809033;79;21676;-76
2021/04/30 16:23:50;;;;;;;12.13;4.58;;;;;;;24.43;34.90;99889.14;1793054;79;21201;-77
2021/04/30 16:26:18;;;;;;;11.33;4.83;;;;;;;24.42;35.14;99887.50;1772777;78;21277;-77
2021/04/30 16:28:44;;;;;;;4.75;3.90;;;;;;;24.39;35.22;99884.76;1784289;77;21200;-77
2021/04/30 16:31:12;;;;;;;5.42;4.17;;;;;;;24.38;35.36;99889.92;1795318;77;21196;-78
2021/04/30 16:33:40;;;;;;;9.73;4.70;;;;;;;24.35;35.29;99890.98;1792427;78;21584;-76
2021/04/30 16:36:10;;;;;;;9.23;4.83;;;;;;;24.33;35.48;99890.41;1796138;77;21729;-80
2021/04/30 16:38:38;;;;;;;6.87;4.78;;;;;;;24.29;35.54;99881.89;1787676;77;21347;-76
2021/04/30 16:41:06;;;;;;;7.55;5.37;;;;;;;24.28;35.57;99892.02;1796111;78;21554;-76
2021/04/30 16:43:34;;;;;;;10.80;5.92;;;;;;;24.26;35.75;99888.73;1785280;78;21184;-77
2021/04/30 16:46:21;;;;;;;8.20;5.40;;;;;;;24.24;35.87;99893.63;1789640;77;21794;-76
2021/04/30 16:48:55;;;;;;;6.50;4.80;;;;;;;24.21;35.86;99887.84;1788371;78;21467;-77
2021/04/30 16:51:33;;;;;;;8.50;5.28;;;;;;;24.23;35.92;99900.20;1843033;77;22759;-77
2021/04/30 16:54:09;;;;;;;9.58;5.00;;;;;;;24.17;35.95;99908.09;1839968;77;21679;-77
2021/04/30 16:56:37;;;;;;;9.48;5.00;;;;;;;24.14;35.92;99909.15;1833335;77;21126;-78
2021/04/30 16:59:04;;;;;;;8.35;4.20;;;;;;;24.11;35.98;99898.72;1831273;76;21422;-75
2021/04/30 17:01:35;;;;;;;9.43;4.65;;;;;;;24.08;36.16;99902.81;1811349;78;21121;-76
2021/04/30 17:04:04;;;;;;;9.50;4.85;;;;;;;24.04;36.19;99908.52;1815157;78;20974;-76
2021/04/30 17:06:31;;;;;;;7.03;4.45;;;;;;;24.02;36.28;99911.50;1811729;78;21662;-76
2021/04/30 17:08:58;;;;;;;8.33;4.50;;;;;;;24.01;36.47;99907.66;1821800;78;21133;-77
2021/04/30 17:11:26;;;;;;;;;;;;;;;23.98;36.33;99913.65;1784729;78;21125;-77
2021/04/30 17:13:52;;;;;;;9.83;4.60;;;;;;;23.95;36.50;99910.91;1804103;77;20166;-77
2021/04/30 17:16:19;;;;;;;;;;;;;;;23.93;36.65;99913.60;1805602;78;21131;-76
2021/04/30 17:18:47;;;;;;;8.60;5.65;;;;;;;23.92;36.75;99918.80;1831111;78;20164;-77
2021/04/30 17:21:16;;;;;;;11.18;5.95;;;;;;;23.88;36.84;99913.02;1829404;78;21122;-78
2021/04/30 17:23:44;;;;;;;9.48;5.25;;;;;;;23.87;36.87;99916.02;1835308;78;21196;-76
2021/04/30 17:26:11;;;;;;;8.90;5.17;;;;;;;23.83;36.95;99912.15;1834277;78;21039;-76
2021/04/30 17:28:38;;;;;;;10.20;4.80;;;;;;;23.81;36.92;99912.41;1834142;78;21214;-76
2021/04/30 17:31:05;;;;;;;7.53;4.70;;;;;;;23.78;37.15;99915.11;1834061;78;21190;-78
2021/04/30 17:33:33;;;;;;;12.53;5.37;;;;;;;23.75;36.94;99918.38;1805042;78;21191;-76
2021/04/30 17:36:01;;;;;;;7.50;5.85;;;;;;;23.72;36.97;99929.83;1829684;78;21619;-76
2021/04/30 17:38:31;;;;;;;8.00;5.72;;;;;;;23.71;37.22;99940.48;1814891;79;21668;-77
2021/04/30 17:41:01;;;;;;;7.60;5.40;;;;;;;23.69;37.35;99939.08;1814925;79;21113;-77
2021/04/30 17:43:29;;;;;;;10.40;5.70;;;;;;;23.68;37.32;99938.26;1814623;79;21154;-76
2021/04/30 17:45:58;;;;;;;14.23;6.45;;;;;;;23.66;37.33;99945.88;1820615;78;21196;-76
2021/04/30 17:48:28;;;;;;;9.45;6.47;;;;;;;23.64;37.77;99944.47;1819425;78;21184;-78
2021/04/30 17:50:58;;;;;;;14.13;6.62;;;;;;;23.63;37.56;99953.76;1819164;78;21522;-78
2021/04/30 17:53:26;;;;;;;10.88;6.22;;;;;;;23.61;37.68;99958.09;1854738;77;21156;-77
2021/04/30 17:55:54;;;;;;;9.48;6.37;;;;;;;23.59;37.73;99963.55;1842630;77;20967;-76
2021/04/30 17:58:24;;;;;;;33.88;22.42;;;;;;;23.58;37.80;99970.11;1824167;78;21584;-80
2021/04/30 18:00:51;;;;;;;105.27;79.35;;;;;;;23.58;37.76;99974.21;1890612;75;21168;-78
2021/04/30 18:03:19;;;;;;;153.65;116.00;;;;;;;23.56;37.86;99974.44;1810760;78;21188;-77
2021/04/30 18:05:50;;;;;;;87.05;61.85;;;;;;;23.55;38.00;99991.94;1830396;78;21204;-77
2021/04/30 18:08:17;;;;;;;34.43;26.85;;;;;;;23.54;38.25;100005.33;1799618;78;21168;-76
2021/04/30 18:10:44;;;;;;;16.32;10.90;;;;;;;23.51;38.44;100014.84;1829236;78;21177;-76
2021/04/30 18:13:12;;;;;;;13.60;6.42;;;;;;;23.51;39.14;100015.39;1828981;77;21220;-76
2021/04/30 18:15:41;;;;;;;6.90;4.42;;;;;;;23.49;40.10;100023.86;1816660;78;21190;-77
2021/04/30 18:18:10;;;;;;;7.72;4.50;;;;;;;23.45;40.61;100021.89;1790563;80;21622;-78
2021/04/30 18:20:38;;;;;;;8.08;4.40;;;;;;;23.41;41.12;100024.30;1814159;79;21150;-76
2021/04/30 18:23:05;;;;;;;5.65;3.85;;;;;;;23.37;41.66;100029.16;1821975;78;21641;-78
2021/04/30 18:25:35;;;;;;;7.60;4.30;;;;;;;23.33;42.19;100038.39;1832115;78;21673;-78
2021/04/30 18:28:05;;;;;;;5.60;4.20;;;;;;;23.29;42.76;100043.52;1832175;78;21186;-77
2021/04/30 18:30:34;;;;;;;8.00;3.98;;;;;;;23.24;43.15;100048.09;1819890;78;21690;-77
2021/04/30 18:33:01;;;;;;;7.70;4.42;;;;;;;23.17;43.40;100048.29;1799047;78;21183;-77
2021/04/30 18:35:29;;;;;;;6.55;4.17;;;;;;;23.13;43.70;100058.06;1812239;78;21620;-77
2021/04/30 18:37:57;;;;;;;7.03;4.70;;;;;;;23.11;43.90;100062.11;1801793;79;21180;-79
2021/04/30 18:40:29;;;;;;;9.98;4.15;;;;;;;23.06;44.28;100060.13;1824614;78;21535;-77
2021/04/30 18:42:57;;;;;;;7.40;4.30;;;;;;;23.01;44.04;100060.05;1835869;78;21171;-78
2021/04/30 18:45:25;;;;;;;5.70;4.08;;;;;;;22.94;44.38;100053.95;1835819;78;21171;-78
2021/04/30 18:47:54;;;;;;;7.97;4.35;;;;;;;22.88;44.18;100046.70;1831632;78;21199;-78
2021/04/30 18:50:24;;;;;;;5.17;3.70;;;;;;;22.83;44.31;100047.45;1835420;78;21198;-78
2021/04/30 18:52:55;;;;;;;6.50;3.87;;;;;;;22.77;44.19;100052.02;1836174;78;21656;-79
2021/04/30 18:55:23;;;;;;;4.83;3.42;;;;;;;22.70;44.93;100049.14;1836781;78;21187;-79
2021/04/30 18:57:51;;;;;;;5.37;3.30;;;;;;;22.59;45.23;100041.34;1836614;78;21131;-79
2021/04/30 19:00:22;;;;;;;13.48;4.87;;;;;;;22.45;45.30;100034.55;1836691;78;21203;-79
2021/04/30 19:02:49;;;;;;;49.48;18.65;;;;;;;22.38;45.65;100035.23;1821287;77;21228;-80
2021/04/30 19:05:17;;;;;;;63.70;23.55;;;;;;;22.34;45.95;100038.16;1797465;79;21225;-77
2021/04/30 19:07:46;;;;;;;58.35;23.90;;;;;;;22.27;46.51;100032.33;1760832;79;21147;-80
2021/04/30 19:10:14;;;;;;;34.33;13.13;;;;;;;22.20;46.14;100040.36;1803181;78;21187;-78
2021/04/30 19:12:43;;;;;;;17.80;8.10;;;;;;;22.16;46.00;100037.83;1837007;78;21175;-80
2021/04/30 19:15:13;;;;;;;32.73;11.15;;;;;;;22.13;45.81;100039.70;1837012;78;21182;-77
2021/04/30 19:17:40;;;;;;;70.85;24.43;;;;;;;22.11;46.24;100042.62;1836973;78;21143;-77
2021/04/30 19:20:12;;;;;;;53.25;16.55;;;;;;;22.03;46.18;100021.22;1836684;78;21123;-77
2021/04/30 19:22:42;;;;;;;25.80;9.45;;;;;;;21.97;45.82;100023.53;1835886;78;21143;-79
2021/04/30 19:25:12;;;;;;;7.33;3.50;;;;;;;21.93;46.26;100025.09;1834781;78;21194;-76
2021/04/30 19:27:39;;;;;;;3.83;1.85;;;;;;;21.82;46.45;100021.35;1835941;78;21662;-77
2021/04/30 19:30:08;;;;;;;4.17;1.52;;;;;;;21.73;46.77;100018.17;1836409;78;21630;-79
2021/04/30 19:32:37;;;;;;;9.88;7.10;;;;;;;21.68;46.95;100020.80;1806115;78;21183;-79
2021/04/30 19:35:08;;;;;;;4.00;3.02;;;;;;;21.66;47.02;100022.92;1836597;78;21618;-76
2021/04/30 19:37:36;;;;;;;3.42;1.55;;;;;;;21.65;46.94;100021.28;1836586;78;21174;-80
2021/04/30 19:40:08;;;;;;;5.05;2.83;;;;;;;21.64;46.81;100025.08;1836755;78;21745;-77
2021/04/30 19:42:37;;;;;;;4.35;2.05;;;;;;;21.64;46.14;100040.61;1836417;78;22244;-81
2021/04/30 19:45:06;;;;;;;2.72;1.65;;;;;;;21.68;45.89;100048.06;1806009;78;21186;-79
2021/04/30 19:47:34;;;;;;;2.45;1.50;;;;;;;21.71;45.72;100048.95;1835835;78;21167;-78
2021/04/30 19:50:09;;;;;;;1.98;1.22;;;;;;;21.75;45.67;100046.01;1836011;78;21658;-79
2021/04/30 19:52:37;;;;;;;2.17;1.17;;;;;;;21.75;45.67;100039.73;1835459;78;21190;-79
2021/04/30 19:55:07;;;;;;;0.85;0.82;;;;;;;21.69;45.95;100038.81;1783010;78;21204;-76
2021/04/30 19:57:34;;;;;;;2.17;1.37;;;;;;;21.63;46.14;100034.33;1801300;79;21176;-77
2021/04/30 20:00:08;;;;;;;2.35;1.22;;;;;;;21.62;46.37;100027.73;1832972;78;22122;-80
2021/04/30 20:02:36;;;;;;;1.90;1.20;;;;;;;21.60;46.76;100042.98;1801180;79;21285;-78
2021/04/30 20:05:03;;;;;;;;;;;;;;;21.58;46.83;100043.77;1836382;78;21201;-79
2021/04/30 20:07:32;;;;;;;2.77;1.77;;;;;;;21.59;46.80;100046.78;1833533;78;20579;-76
2021/04/30 20:10:01;;;;;;;3.40;2.00;;;;;;;21.60;46.98;100043.52;1833518;78;21185;-77
2021/04/30 20:12:30;;;;;;;2.22;1.60;;;;;;;21.59;47.07;100047.31;1815418;78;21174;-79
2021/04/30 20:14:58;;;;;;;4.10;1.40;;;;;;;21.58;46.95;100049.22;1813416;78;21208;-79
2021/04/30 20:17:25;;;;;;;1.52;1.20;;;;;;;21.57;46.88;100062.53;1823117;77;21178;-77
2021/04/30 20:19:53;;;;;;;1.98;1.35;;;;;;;21.57;46.76;100070.70;1831891;78;21178;-77
2021/04/30 20:22:20;;;;;;;2.40;1.60;;;;;;;21.54;46.63;100083.47;1832232;78;21178;-77
2021/04/30 20:24:48;;;;;;;1.27;1.17;;;;;;;21.59;46.41;100095.02;1832193;78;21134;-77
2021/04/30 20:27:15;;;;;;;1.55;1.30;;;;;;;21.60;46.25;100093.41;1832599;78;21168;-76
2021/04/30 20:29:44;;;;;;;1.90;1.47;;;;;;;21.61;46.32;100099.14;1832435;78;21163;-77
2021/04/30 20:32:11;;;;;;;6.42;3.47;;;;;;;21.63;46.09;100091.57;1832929;78;21182;-78
2021/04/30 20:34:41;;;;;;;5.50;3.12;;;;;;;21.64;45.85;100089.13;1832622;78;21171;-78
2021/04/30 20:37:08;;;;;;;4.78;4.08;;;;;;;21.66;46.02;100085.62;1832413;78;21171;-77
2021/04/30 20:39:39;;;;;;;4.53;2.98;;;;;;;21.66;46.13;100082.89;1832517;78;21151;-78
2021/04/30 20:42:06;;;;;;;6.22;2.67;;;;;;;21.68;46.16;100078.58;1832452;78;21195;-77
2021/04/30 20:44:34;;;;;;;4.78;2.90;;;;;;;21.70;46.43;100085.97;1801108;78;21139;-78
2021/04/30 20:47:01;;;;;;;3.77;2.30;;;;;;;21.71;46.50;100081.66;1801204;78;21167;-77
2021/04/30 20:49:31;;;;;;;4.58;2.65;;;;;;;21.73;46.57;100087.69;1834241;78;21203;-76
2021/04/30 20:51:58;;;;;;;;;;;;;;;21.73;46.65;100090.41;1833613;77;21151;-77
2021/04/30 20:54:26;;;;;;;4.17;3.50;;;;;;;21.75;46.80;100091.53;1834367;78;20295;-78
2021/04/30 20:56:54;;;;;;;7.85;4.25;;;;;;;21.74;47.01;100097.52;1833939;78;21167;-77
2021/04/30 20:59:21;;;;;;;;;;;;;;;21.74;47.22;100090.70;1836797;78;21044;-78
2021/04/30 21:01:49;;;;;;;6.40;3.67;;;;;;;21.73;47.31;100091.78;1834106;78;20228;-80
2021/04/30 21:04:16;;;;;;;6.28;3.87;;;;;;;21.70;47.29;100097.70;1833841;78;21629;-79
2021/04/30 21:06:43;;;;;;;4.10;3.65;;;;;;;21.68;47.48;100101.22;1833889;78;21139;-77
2021/04/30 21:09:10;;;;;;;;;;;;;;;21.68;47.70;100099.85;1836832;78;21101;-75
2021/04/30 21:14:32;;;;;;;8.03;4.80;;;;;;;21.68;47.87;100091.67;1834203;78;21095;-78
2021/04/30 21:17:11;;;;;;;9.30;5.75;;;;;;;21.69;47.80;100097.41;1801992;78;21075;-78
2021/04/30 21:19:42;;;;;;;13.20;6.65;;;;;;;21.71;48.06;100092.56;1803318;78;21099;-75
2021/04/30 21:22:12;;;;;;;10.88;6.83;;;;;;;21.70;48.24;100091.42;1860534;76;21050;-76
2021/04/30 21:24:42;;;;;;;13.50;7.00;;;;;;;21.67;48.30;100092.75;1870875;76;21120;-77
2021/04/30 21:27:12;;;;;;;8.85;6.45;;;;;;;21.66;48.61;100091.06;1861322;76;21188;-78
2021/04/30 21:29:41;;;;;;;10.08;6.28;;;;;;;21.65;48.75;100090.78;1821537;78;21155;-79
2021/04/30 21:32:09;;;;;;;10.05;5.75;;;;;;;21.64;48.96;100088.30;1790598;78;21199;-77
2021/04/30 21:34:37;;;;;;;9.65;5.37;;;;;;;21.64;49.18;100082.86;1799033;79;21179;-78
2021/04/30 21:37:04;;;;;;;8.88;6.00;;;;;;;21.65;49.25;100092.14;1799524;79;21166;-77
2021/04/30 21:39:32;;;;;;;7.33;5.28;;;;;;;21.67;49.13;100087.84;1799779;79;21182;-76
2021/04/30 21:41:59;;;;;;;10.08;6.10;;;;;;;21.69;49.07;100091.14;1825066;78;21129;-77
2021/04/30 21:44:28;;;;;;;7.37;5.90;;;;;;;21.68;49.12;100094.94;1800981;79;21148;-79
2021/04/30 21:46:56;;;;;;;8.50;6.00;;;;;;;21.66;49.20;100094.33;1833861;78;21137;-76
2021/04/30 21:49:23;;;;;;;9.80;6.85;;;;;;;21.65;49.33;100091.31;1801806;79;21564;-77
2021/04/30 21:51:50;;;;;;;10.75;7.33;;;;;;;21.64;49.49;100086.95;1834206;78;21125;-78
2021/04/30 21:54:18;;;;;;;13.03;7.92;;;;;;;21.63;49.50;100083.39;1800761;79;21607;-77
2021/04/30 21:56:47;;;;;;;14.05;8.03;;;;;;;21.64;49.59;100088.30;1834152;78;21436;-78
2021/04/30 21:59:16;;;;;;;12.13;8.35;;;;;;;21.64;49.71;100094.58;1802004;78;21180;-77
2021/04/30 22:01:46;;;;;;;10.25;8.43;;;;;;;21.64;49.63;100101.94;1801600;78;21215;-78
2021/04/30 22:04:17;;;;;;;12.28;8.50;;;;;;;21.63;49.70;100093.47;1802500;78;21168;-77
2021/04/30 22:06:50;;;;;;;10.53;7.75;;;;;;;21.62;49.72;100104.05;1802856;79;21129;-77
2021/04/30 22:09:23;;;;;;;13.58;8.55;;;;;;;21.58;49.83;100097.45;1835415;78;21081;-75
2021/04/30 22:12:04;;;;;;;16.20;9.60;;;;;;;21.57;49.92;100103.41;1824081;78;21051;-76
2021/04/30 22:14:33;;;;;;;17.42;10.00;;;;;;;21.57;49.98;100101.22;1793817;79;21165;-77
2021/04/30 22:17:00;;;;;;;17.27;9.83;;;;;;;21.56;50.01;100095.48;1816486;79;21090;-76
2021/04/30 22:19:28;;;;;;;17.73;10.05;;;;;;;21.57;49.96;100100.69;1793205;79;21074;-79
2021/04/30 22:21:55;;;;;;;;;;;;;;;21.56;49.90;100105.84;1819842;79;21118;-78
2021/04/30 22:24:24;;;;;;;18.17;11.68;;;;;;;21.55;49.89;100103.38;1816378;79;20295;-78
2021/04/30 22:26:51;;;;;;;21.85;11.90;;;;;;;21.52;50.05;100106.02;1816323;79;21142;-78
2021/04/30 22:29:19;;;;;;;23.95;12.80;;;;;;;21.48;50.13;100098.89;1792787;80;21070;-78
2021/04/30 22:31:47;;;;;;;16.62;11.97;;;;;;;21.46;50.28;100098.81;1816175;79;21134;-77
2021/04/30 22:34:14;;;;;;;21.07;13.10;;;;;;;;;;1785416;79;21146;-78
2021/04/30 22:36:42;;;;;;;18.87;12.68;;;;;;;21.44;50.18;100092.79;1816357;79;21599;-77
2021/04/30 22:39:11;;;;;;;18.90;12.53;;;;;;;21.46;50.10;100098.28;1792842;79;21050;-78
2021/04/30 22:41:39;;;;;;;21.33;14.87;;;;;;;21.47;50.03;100094.48;1827069;78;21101;-77
2021/04/30 22:44:12;;;;;;;26.77;16.87;;;;;;;21.47;49.83;100088.20;1801766;79;21065;-78
2021/04/30 22:46:41;;;;;;;26.27;16.87;;;;;;;;;;1833921;78;21592;-79
2021/04/30 22:49:10;;;;;;;24.95;16.35;;;;;;;21.42;49.88;100096.27;1834362;78;21129;-77
2021/04/30 22:51:41;;;;;;;28.50;20.20;;;;;;;21.41;49.83;100098.70;1801390;79;21125;-77
2021/04/30 22:54:09;;;;;;;29.18;20.85;;;;;;;21.41;49.81;100098.17;1802845;78;21053;-77
2021/04/30 22:56:38;;;;;;;30.62;19.23;;;;;;;21.41;49.82;100098.17;1834081;78;22307;-76
2021/04/30 22:59:06;;;;;;;26.73;18.92;;;;;;;21.41;49.91;100105.52;1834218;78;21113;-77
2021/04/30 23:01:33;;;;;;;25.48;18.23;;;;;;;21.38;49.90;100107.34;1801699;79;21093;-77
2021/04/30 23:04:00;;;;;;;;;;;;;;;21.35;49.90;100105.08;1837093;78;21473;-77
2021/04/30 23:06:27;;;;;;;22.07;15.32;;;;;;;21.33;49.73;100100.42;1834225;78;20231;-79
2021/04/30 23:08:56;;;;;;;21.90;14.40;;;;;;;21.29;49.91;100106.30;1782054;79;21160;-78
2021/04/30 23:11:23;;;;;;;19.70;15.28;;;;;;;21.28;49.87;100116.91;1833511;78;21184;-77
2021/04/30 23:13:51;;;;;;;18.20;14.50;;;;;;;21.28;50.06;100120.99;1834043;78;21184;-78
2021/04/30 23:16:19;;;;;;;15.58;11.28;;;;;;;21.27;50.01;100118.52;1833897;78;21164;-78
2021/04/30 23:18:46;;;;;;;16.93;10.80;;;;;;;21.27;49.98;100121.24;1832969;78;21160;-78
2021/04/30 23:21:14;;;;;;;13.65;8.63;;;;;;;21.25;49.92;100124.19;1800977;79;21157;-78
2021/04/30 23:23:41;;;;;;;;;;;;;;;21.24;50.05;100123.89;1803754;79;21157;-76
2021/04/30 23:26:07;;;;;;;9.85;7.65;;;;;;;21.22;50.01;100124.67;1833674;77;20245;-78
2021/04/30 23:28:36;;;;;;;9.93;7.75;;;;;;;21.20;50.16;100122.70;1833883;78;21105;-79
2021/04/30 23:31:05;;;;;;;9.58;7.42;;;;;;;21.20;50.18;100130.05;1834073;78;21137;-79
2021/04/30 23:33:32;;;;;;;9.88;7.62;;;;;;;21.19;50.28;100133.31;1820391;78;21172;-77
2021/04/30 23:36:00;;;;;;;10.13;7.35;;;;;;;21.19;50.33;100136.03;1799603;77;21088;-78
2021/04/30 23:38:27;;;;;;;10.58;7.90;;;;;;;21.18;50.41;100144.45;1827676;77;21157;-77
2021/04/30 23:40:55;;;;;;;10.13;7.05;;;;;;;21.18;50.44;100148.00;1837308;77;21808;-78
2021/04/30 23:43:22;;;;;;;10.43;6.75;;;;;;;21.17;50.42;100147.70;1832986;78;21167;-78
2021/04/30 23:45:49;;;;;;;;;;;;;;;21.16;50.44;100146.56;1834764;78;21181;-78
2021/04/30 23:48:16;;;;;;;14.00;7.80;;;;;;;21.12;50.61;100148.95;1832578;78;20286;-78
2021/04/30 23:50:43;;;;;;;12.03;7.78;;;;;;;21.09;50.69;100151.31;1779866;79;21193;-78
2021/04/30 23:53:11;;;;;;;9.55;7.53;;;;;;;21.09;50.77;100151.31;1832516;78;21165;-78
2021/04/30 23:55:39;;;;;;;10.82;8.20;;;;;;;21.06;50.68;100153.95;1832302;78;21180;-80
2021/04/30 23:58:06;;;;;;;12.05;7.17;;;;;;;21.05;50.67;100153.66;1832949;78;21139;-78
